sensor_id;sensor_type;location;lat;lon;timestamp;P1;durP1;ratioP1;P2;durP2;ratioP2
4307;SDS011;2167;53.448;9.984;2023-07-16T00:01:22;4.80;;;1.37;;
4307;SDS011;2167;53.448;9.984;2023-07-16T00:03:48;2.03;;;1.40;;
4307;SDS011;2167;53.448;9.984;2023-07-16T00:06:14;1.90;;;1.10;;
4307;SDS011;2167;53.448;9.984;2023-07-16T00:08:40;1.60;;;1.30;;
4307;SDS011;2167;53.448;9.984;2023-07-16T00:11:06;2.20;;;1.13;;
4307;SDS011;2167;53.448;9.984;2023-07-16T00:13:32;1.23;;;1.13;;
4307;SDS011;2167;53.448;9.984;2023-07-16T00:15:57;3.60;;;1.30;;
4307;SDS011;2167;53.448;9.984;2023-07-16T00:18:23;2.73;;;1.40;;
4307;SDS011;2167;53.448;9.984;2023-07-16T00:20:50;1.17;;;1.07;;
4307;SDS011;2167;53.448;9.984;2023-07-16T00:23:16;2.13;;;1.73;;
4307;SDS011;2167;53.448;9.984;2023-07-16T00:25:41;1.20;;;0.97;;
4307;SDS011;2167;53.448;9.984;2023-07-16T00:28:07;1.50;;;1.40;;
4307;SDS011;2167;53.448;9.984;2023-07-16T00:30:33;1.33;;;1.07;;
4307;SDS011;2167;53.448;9.984;2023-07-16T00:33:00;2.93;;;1.30;;
4307;SDS011;2167;53.448;9.984;2023-07-16T00:35:26;2.90;;;1.50;;
4307;SDS011;2167;53.448;9.984;2023-07-16T00:37:51;0.73;;;0.70;;
4307;SDS011;2167;53.448;9.984;2023-07-16T00:40:17;2.07;;;0.90;;
4307;SDS011;2167;53.448;9.984;2023-07-16T00:42:43;1.50;;;1.00;;
4307;SDS011;2167;53.448;9.984;2023-07-16T00:45:11;1.23;;;1.10;;
4307;SDS011;2167;53.448;9.984;2023-07-16T00:47:39;1.27;;;0.80;;
4307;SDS011;2167;53.448;9.984;2023-07-16T00:50:05;3.40;;;1.50;;
4307;SDS011;2167;53.448;9.984;2023-07-16T00:52:31;1.07;;;0.97;;
4307;SDS011;2167;53.448;9.984;2023-07-16T00:54:59;1.50;;;1.07;;
4307;SDS011;2167;53.448;9.984;2023-07-16T00:57:25;2.10;;;1.20;;
4307;SDS011;2167;53.448;9.984;2023-07-16T00:59:51;1.10;;;1.00;;
4307;SDS011;2167;53.448;9.984;2023-07-16T01:02:17;1.40;;;1.10;;
4307;SDS011;2167;53.448;9.984;2023-07-16T01:04:45;3.00;;;1.40;;
4307;SDS011;2167;53.448;9.984;2023-07-16T01:07:11;2.30;;;1.20;;
4307;SDS011;2167;53.448;9.984;2023-07-16T01:09:40;1.60;;;1.30;;
4307;SDS011;2167;53.448;9.984;2023-07-16T01:12:07;1.27;;;1.00;;
4307;SDS011;2167;53.448;9.984;2023-07-16T01:14:33;2.73;;;1.17;;
4307;SDS011;2167;53.448;9.984;2023-07-16T01:17:04;1.30;;;1.20;;
4307;SDS011;2167;53.448;9.984;2023-07-16T01:19:31;4.20;;;1.20;;
4307;SDS011;2167;53.448;9.984;2023-07-16T01:24:44;3.80;;;1.57;;
4307;SDS011;2167;53.448;9.984;2023-07-16T01:29:45;1.00;;;0.90;;
4307;SDS011;2167;53.448;9.984;2023-07-16T01:32:15;1.77;;;1.20;;
4307;SDS011;2167;53.448;9.984;2023-07-16T01:40:35;3.20;;;1.10;;
4307;SDS011;2167;53.448;9.984;2023-07-16T01:43:01;2.40;;;1.03;;
4307;SDS011;2167;53.448;9.984;2023-07-16T01:45:27;1.63;;;1.30;;
4307;SDS011;2167;53.448;9.984;2023-07-16T01:48:09;2.33;;;1.40;;
4307;SDS011;2167;53.448;9.984;2023-07-16T01:50:39;2.40;;;1.40;;
4307;SDS011;2167;53.448;9.984;2023-07-16T01:53:07;0.90;;;0.90;;
4307;SDS011;2167;53.448;9.984;2023-07-16T01:55:33;2.13;;;1.50;;
4307;SDS011;2167;53.448;9.984;2023-07-16T01:57:59;1.30;;;1.20;;
4307;SDS011;2167;53.448;9.984;2023-07-16T02:00:25;2.10;;;1.13;;
4307;SDS011;2167;53.448;9.984;2023-07-16T02:02:51;1.63;;;1.53;;
4307;SDS011;2167;53.448;9.984;2023-07-16T02:05:17;2.50;;;1.30;;
4307;SDS011;2167;53.448;9.984;2023-07-16T02:07:43;1.40;;;1.07;;
4307;SDS011;2167;53.448;9.984;2023-07-16T02:10:09;1.40;;;1.10;;
4307;SDS011;2167;53.448;9.984;2023-07-16T02:12:35;1.17;;;1.00;;
4307;SDS011;2167;53.448;9.984;2023-07-16T02:15:01;1.30;;;1.17;;
4307;SDS011;2167;53.448;9.984;2023-07-16T02:17:27;1.10;;;0.97;;
4307;SDS011;2167;53.448;9.984;2023-07-16T02:19:53;1.30;;;1.07;;
4307;SDS011;2167;53.448;9.984;2023-07-16T02:22:19;3.13;;;1.67;;
4307;SDS011;2167;53.448;9.984;2023-07-16T02:24:45;1.57;;;1.10;;
4307;SDS011;2167;53.448;9.984;2023-07-16T02:27:11;1.70;;;1.60;;
4307;SDS011;2167;53.448;9.984;2023-07-16T02:29:37;2.70;;;1.50;;
4307;SDS011;2167;53.448;9.984;2023-07-16T02:32:03;1.33;;;1.10;;
4307;SDS011;2167;53.448;9.984;2023-07-16T02:34:29;2.80;;;1.27;;
4307;SDS011;2167;53.448;9.984;2023-07-16T02:36:55;3.63;;;1.37;;
4307;SDS011;2167;53.448;9.984;2023-07-16T02:39:20;3.00;;;1.20;;
4307;SDS011;2167;53.448;9.984;2023-07-16T02:41:46;1.87;;;1.00;;
4307;SDS011;2167;53.448;9.984;2023-07-16T02:44:13;2.10;;;1.23;;
4307;SDS011;2167;53.448;9.984;2023-07-16T02:46:38;5.50;;;1.10;;
4307;SDS011;2167;53.448;9.984;2023-07-16T02:49:04;2.40;;;1.50;;
4307;SDS011;2167;53.448;9.984;2023-07-16T02:51:30;1.80;;;1.63;;
4307;SDS011;2167;53.448;9.984;2023-07-16T02:53:56;1.67;;;1.03;;
4307;SDS011;2167;53.448;9.984;2023-07-16T02:56:22;2.27;;;1.50;;
4307;SDS011;2167;53.448;9.984;2023-07-16T02:58:48;1.07;;;1.07;;
4307;SDS011;2167;53.448;9.984;2023-07-16T03:01:14;1.13;;;1.03;;
4307;SDS011;2167;53.448;9.984;2023-07-16T03:03:40;2.63;;;1.53;;
4307;SDS011;2167;53.448;9.984;2023-07-16T03:06:06;1.77;;;1.23;;
4307;SDS011;2167;53.448;9.984;2023-07-16T03:08:33;1.10;;;1.00;;
4307;SDS011;2167;53.448;9.984;2023-07-16T03:10:59;3.13;;;1.40;;
4307;SDS011;2167;53.448;9.984;2023-07-16T03:13:25;1.80;;;1.20;;
4307;SDS011;2167;53.448;9.984;2023-07-16T03:15:51;1.40;;;0.90;;
4307;SDS011;2167;53.448;9.984;2023-07-16T03:18:18;1.60;;;1.13;;
4307;SDS011;2167;53.448;9.984;2023-07-16T03:20:44;2.13;;;1.40;;
4307;SDS011;2167;53.448;9.984;2023-07-16T03:23:10;2.03;;;0.93;;
4307;SDS011;2167;53.448;9.984;2023-07-16T03:25:38;3.20;;;1.23;;
4307;SDS011;2167;53.448;9.984;2023-07-16T03:28:04;2.10;;;1.43;;
4307;SDS011;2167;53.448;9.984;2023-07-16T03:30:30;1.90;;;1.40;;
4307;SDS011;2167;53.448;9.984;2023-07-16T03:32:58;3.77;;;1.30;;
4307;SDS011;2167;53.448;9.984;2023-07-16T03:35:24;1.70;;;1.40;;
4307;SDS011;2167;53.448;9.984;2023-07-16T03:37:50;1.53;;;1.13;;
4307;SDS011;2167;53.448;9.984;2023-07-16T03:40:17;4.30;;;1.30;;
4307;SDS011;2167;53.448;9.984;2023-07-16T03:42:44;2.13;;;1.20;;
4307;SDS011;2167;53.448;9.984;2023-07-16T03:45:10;3.50;;;1.30;;
4307;SDS011;2167;53.448;9.984;2023-07-16T03:47:36;3.00;;;1.30;;
4307;SDS011;2167;53.448;9.984;2023-07-16T03:50:02;2.50;;;1.20;;
4307;SDS011;2167;53.448;9.984;2023-07-16T03:52:28;2.10;;;1.60;;
4307;SDS011;2167;53.448;9.984;2023-07-16T03:54:54;3.10;;;2.17;;
4307;SDS011;2167;53.448;9.984;2023-07-16T03:57:20;1.70;;;1.50;;
4307;SDS011;2167;53.448;9.984;2023-07-16T03:59:46;1.10;;;1.00;;
4307;SDS011;2167;53.448;9.984;2023-07-16T04:02:12;1.10;;;1.00;;
4307;SDS011;2167;53.448;9.984;2023-07-16T04:04:38;2.30;;;1.57;;
4307;SDS011;2167;53.448;9.984;2023-07-16T04:07:05;2.03;;;1.37;;
4307;SDS011;2167;53.448;9.984;2023-07-16T04:09:31;0.97;;;0.87;;
4307;SDS011;2167;53.448;9.984;2023-07-16T04:11:57;2.10;;;1.60;;
4307;SDS011;2167;53.448;9.984;2023-07-16T04:14:22;1.40;;;1.30;;
4307;SDS011;2167;53.448;9.984;2023-07-16T04:16:48;1.70;;;1.60;;
4307;SDS011;2167;53.448;9.984;2023-07-16T04:19:14;1.80;;;1.70;;
4307;SDS011;2167;53.448;9.984;2023-07-16T04:21:40;1.60;;;1.50;;
4307;SDS011;2167;53.448;9.984;2023-07-16T04:24:06;3.90;;;1.10;;
4307;SDS011;2167;53.448;9.984;2023-07-16T04:26:32;2.07;;;1.30;;
4307;SDS011;2167;53.448;9.984;2023-07-16T04:28:58;2.00;;;1.53;;
4307;SDS011;2167;53.448;9.984;2023-07-16T04:31:24;1.97;;;1.80;;
4307;SDS011;2167;53.448;9.984;2023-07-16T04:33:50;2.23;;;1.83;;
4307;SDS011;2167;53.448;9.984;2023-07-16T04:36:16;2.67;;;1.70;;
4307;SDS011;2167;53.448;9.984;2023-07-16T04:38:42;3.73;;;1.40;;
4307;SDS011;2167;53.448;9.984;2023-07-16T04:41:08;3.03;;;1.93;;
4307;SDS011;2167;53.448;9.984;2023-07-16T04:43:34;5.80;;;2.60;;
4307;SDS011;2167;53.448;9.984;2023-07-16T04:46:00;4.40;;;1.70;;
4307;SDS011;2167;53.448;9.984;2023-07-16T04:48:26;3.03;;;1.63;;
4307;SDS011;2167;53.448;9.984;2023-07-16T04:50:52;2.80;;;1.20;;
4307;SDS011;2167;53.448;9.984;2023-07-16T04:53:18;2.73;;;1.60;;
4307;SDS011;2167;53.448;9.984;2023-07-16T04:55:44;2.20;;;2.00;;
4307;SDS011;2167;53.448;9.984;2023-07-16T04:58:13;2.57;;;1.60;;
4307;SDS011;2167;53.448;9.984;2023-07-16T05:00:40;1.97;;;1.67;;
4307;SDS011;2167;53.448;9.984;2023-07-16T05:03:06;3.57;;;1.80;;
4307;SDS011;2167;53.448;9.984;2023-07-16T05:05:31;4.17;;;1.73;;
4307;SDS011;2167;53.448;9.984;2023-07-16T05:07:57;1.73;;;1.30;;
4307;SDS011;2167;53.448;9.984;2023-07-16T05:10:23;2.20;;;1.20;;
4307;SDS011;2167;53.448;9.984;2023-07-16T05:12:49;2.23;;;1.43;;
4307;SDS011;2167;53.448;9.984;2023-07-16T05:15:16;4.40;;;1.57;;
4307;SDS011;2167;53.448;9.984;2023-07-16T05:17:41;2.23;;;1.73;;
4307;SDS011;2167;53.448;9.984;2023-07-16T05:20:08;1.33;;;1.20;;
4307;SDS011;2167;53.448;9.984;2023-07-16T05:22:34;2.30;;;1.77;;
4307;SDS011;2167;53.448;9.984;2023-07-16T05:25:00;1.67;;;1.47;;
4307;SDS011;2167;53.448;9.984;2023-07-16T05:27:27;2.63;;;1.47;;
4307;SDS011;2167;53.448;9.984;2023-07-16T05:29:53;2.03;;;1.93;;
4307;SDS011;2167;53.448;9.984;2023-07-16T05:32:19;1.50;;;1.40;;
4307;SDS011;2167;53.448;9.984;2023-07-16T05:34:45;3.00;;;1.27;;
4307;SDS011;2167;53.448;9.984;2023-07-16T05:37:12;1.63;;;1.30;;
4307;SDS011;2167;53.448;9.984;2023-07-16T05:39:37;1.30;;;1.20;;
4307;SDS011;2167;53.448;9.984;2023-07-16T05:42:04;6.13;;;2.00;;
4307;SDS011;2167;53.448;9.984;2023-07-16T05:44:30;1.40;;;1.30;;
4307;SDS011;2167;53.448;9.984;2023-07-16T05:46:56;1.87;;;1.70;;
4307;SDS011;2167;53.448;9.984;2023-07-16T05:49:23;2.47;;;1.33;;
4307;SDS011;2167;53.448;9.984;2023-07-16T05:51:49;1.80;;;1.30;;
4307;SDS011;2167;53.448;9.984;2023-07-16T05:54:14;2.23;;;1.10;;
4307;SDS011;2167;53.448;9.984;2023-07-16T05:56:40;1.40;;;1.30;;
4307;SDS011;2167;53.448;9.984;2023-07-16T05:59:06;4.90;;;2.00;;
4307;SDS011;2167;53.448;9.984;2023-07-16T06:01:32;4.73;;;3.10;;
4307;SDS011;2167;53.448;9.984;2023-07-16T06:03:58;2.50;;;1.30;;
4307;SDS011;2167;53.448;9.984;2023-07-16T06:06:26;1.53;;;1.43;;
4307;SDS011;2167;53.448;9.984;2023-07-16T06:08:52;2.43;;;1.47;;
4307;SDS011;2167;53.448;9.984;2023-07-16T06:11:18;4.20;;;1.77;;
4307;SDS011;2167;53.448;9.984;2023-07-16T06:13:44;1.47;;;1.07;;
4307;SDS011;2167;53.448;9.984;2023-07-16T06:16:10;4.77;;;1.50;;
4307;SDS011;2167;53.448;9.984;2023-07-16T06:18:36;6.37;;;1.40;;
4307;SDS011;2167;53.448;9.984;2023-07-16T06:21:01;3.33;;;1.40;;
4307;SDS011;2167;53.448;9.984;2023-07-16T06:23:28;2.77;;;1.37;;
4307;SDS011;2167;53.448;9.984;2023-07-16T06:25:54;4.97;;;1.80;;
4307;SDS011;2167;53.448;9.984;2023-07-16T06:28:20;4.63;;;1.67;;
4307;SDS011;2167;53.448;9.984;2023-07-16T06:30:46;3.63;;;1.40;;
4307;SDS011;2167;53.448;9.984;2023-07-16T06:33:12;2.57;;;1.70;;
4307;SDS011;2167;53.448;9.984;2023-07-16T06:35:38;3.47;;;1.60;;
4307;SDS011;2167;53.448;9.984;2023-07-16T06:38:04;3.17;;;1.50;;
4307;SDS011;2167;53.448;9.984;2023-07-16T06:40:30;4.20;;;1.30;;
4307;SDS011;2167;53.448;9.984;2023-07-16T06:42:56;3.57;;;1.53;;
4307;SDS011;2167;53.448;9.984;2023-07-16T06:45:22;5.60;;;1.93;;
4307;SDS011;2167;53.448;9.984;2023-07-16T06:47:48;2.93;;;1.40;;
4307;SDS011;2167;53.448;9.984;2023-07-16T06:50:14;5.50;;;2.00;;
4307;SDS011;2167;53.448;9.984;2023-07-16T06:52:40;3.70;;;2.20;;
4307;SDS011;2167;53.448;9.984;2023-07-16T06:55:06;4.07;;;1.70;;
4307;SDS011;2167;53.448;9.984;2023-07-16T06:57:32;2.80;;;1.63;;
4307;SDS011;2167;53.448;9.984;2023-07-16T06:59:58;6.63;;;2.37;;
4307;SDS011;2167;53.448;9.984;2023-07-16T07:02:24;4.93;;;2.37;;
4307;SDS011;2167;53.448;9.984;2023-07-16T07:04:50;3.03;;;1.80;;
4307;SDS011;2167;53.448;9.984;2023-07-16T07:07:16;10.50;;;2.60;;
4307;SDS011;2167;53.448;9.984;2023-07-16T07:09:42;4.17;;;1.93;;
4307;SDS011;2167;53.448;9.984;2023-07-16T07:12:08;6.20;;;2.00;;
4307;SDS011;2167;53.448;9.984;2023-07-16T07:14:34;4.20;;;1.90;;
4307;SDS011;2167;53.448;9.984;2023-07-16T07:17:00;3.70;;;2.10;;
4307;SDS011;2167;53.448;9.984;2023-07-16T07:19:26;2.03;;;1.50;;
4307;SDS011;2167;53.448;9.984;2023-07-16T07:21:52;4.40;;;2.37;;
4307;SDS011;2167;53.448;9.984;2023-07-16T07:24:18;2.50;;;1.73;;
4307;SDS011;2167;53.448;9.984;2023-07-16T07:26:44;7.27;;;2.73;;
4307;SDS011;2167;53.448;9.984;2023-07-16T07:29:10;4.70;;;2.30;;
4307;SDS011;2167;53.448;9.984;2023-07-16T07:31:39;2.93;;;1.40;;
4307;SDS011;2167;53.448;9.984;2023-07-16T07:34:05;7.37;;;2.17;;
4307;SDS011;2167;53.448;9.984;2023-07-16T07:36:31;3.50;;;1.60;;
4307;SDS011;2167;53.448;9.984;2023-07-16T07:38:57;1.83;;;1.63;;
4307;SDS011;2167;53.448;9.984;2023-07-16T07:41:22;5.23;;;2.13;;
4307;SDS011;2167;53.448;9.984;2023-07-16T07:43:48;2.80;;;2.20;;
4307;SDS011;2167;53.448;9.984;2023-07-16T07:46:14;4.90;;;2.00;;
4307;SDS011;2167;53.448;9.984;2023-07-16T07:48:40;3.40;;;1.87;;
4307;SDS011;2167;53.448;9.984;2023-07-16T07:51:06;6.83;;;1.70;;
4307;SDS011;2167;53.448;9.984;2023-07-16T07:53:33;3.77;;;2.10;;
4307;SDS011;2167;53.448;9.984;2023-07-16T07:55:59;2.00;;;1.60;;
4307;SDS011;2167;53.448;9.984;2023-07-16T07:58:25;2.00;;;1.50;;
4307;SDS011;2167;53.448;9.984;2023-07-16T08:00:51;2.77;;;1.70;;
4307;SDS011;2167;53.448;9.984;2023-07-16T08:03:16;4.83;;;2.10;;
4307;SDS011;2167;53.448;9.984;2023-07-16T08:05:42;3.80;;;2.30;;
4307;SDS011;2167;53.448;9.984;2023-07-16T08:08:08;3.17;;;1.83;;
4307;SDS011;2167;53.448;9.984;2023-07-16T08:10:34;7.07;;;2.40;;
4307;SDS011;2167;53.448;9.984;2023-07-16T08:13:00;8.80;;;2.50;;
4307;SDS011;2167;53.448;9.984;2023-07-16T08:15:26;2.53;;;1.90;;
4307;SDS011;2167;53.448;9.984;2023-07-16T08:17:52;2.40;;;1.73;;
4307;SDS011;2167;53.448;9.984;2023-07-16T08:20:19;3.93;;;1.60;;
4307;SDS011;2167;53.448;9.984;2023-07-16T08:22:45;3.90;;;1.70;;
4307;SDS011;2167;53.448;9.984;2023-07-16T08:25:11;4.87;;;1.80;;
4307;SDS011;2167;53.448;9.984;2023-07-16T08:27:37;2.97;;;1.80;;
4307;SDS011;2167;53.448;9.984;2023-07-16T08:30:03;2.93;;;1.87;;
4307;SDS011;2167;53.448;9.984;2023-07-16T08:32:29;3.63;;;1.90;;
4307;SDS011;2167;53.448;9.984;2023-07-16T08:34:55;5.63;;;2.10;;
4307;SDS011;2167;53.448;9.984;2023-07-16T08:37:21;4.53;;;2.10;;
4307;SDS011;2167;53.448;9.984;2023-07-16T08:39:47;6.20;;;2.13;;
4307;SDS011;2167;53.448;9.984;2023-07-16T08:42:15;3.10;;;2.40;;
4307;SDS011;2167;53.448;9.984;2023-07-16T08:44:41;3.10;;;2.07;;
4307;SDS011;2167;53.448;9.984;2023-07-16T08:47:07;5.70;;;2.20;;
4307;SDS011;2167;53.448;9.984;2023-07-16T08:49:34;2.47;;;2.13;;
4307;SDS011;2167;53.448;9.984;2023-07-16T08:52:03;3.43;;;2.70;;
4307;SDS011;2167;53.448;9.984;2023-07-16T08:54:30;4.07;;;2.50;;
4307;SDS011;2167;53.448;9.984;2023-07-16T08:56:56;4.10;;;2.77;;
4307;SDS011;2167;53.448;9.984;2023-07-16T08:59:25;6.10;;;3.07;;
4307;SDS011;2167;53.448;9.984;2023-07-16T09:01:52;5.67;;;3.30;;
4307;SDS011;2167;53.448;9.984;2023-07-16T09:04:17;5.63;;;3.00;;
4307;SDS011;2167;53.448;9.984;2023-07-16T09:06:44;5.90;;;3.40;;
4307;SDS011;2167;53.448;9.984;2023-07-16T09:09:19;3.90;;;2.80;;
4307;SDS011;2167;53.448;9.984;2023-07-16T09:11:46;6.67;;;3.03;;
4307;SDS011;2167;53.448;9.984;2023-07-16T09:14:15;4.53;;;2.90;;
4307;SDS011;2167;53.448;9.984;2023-07-16T09:16:40;5.80;;;3.20;;
4307;SDS011;2167;53.448;9.984;2023-07-16T09:19:09;6.03;;;3.13;;
4307;SDS011;2167;53.448;9.984;2023-07-16T09:21:38;4.07;;;2.60;;
4307;SDS011;2167;53.448;9.984;2023-07-16T09:24:07;4.33;;;2.87;;
4307;SDS011;2167;53.448;9.984;2023-07-16T09:26:36;8.17;;;3.20;;
4307;SDS011;2167;53.448;9.984;2023-07-16T09:29:05;4.93;;;3.43;;
4307;SDS011;2167;53.448;9.984;2023-07-16T09:31:32;7.20;;;3.80;;
4307;SDS011;2167;53.448;9.984;2023-07-16T09:33:58;5.93;;;2.90;;
4307;SDS011;2167;53.448;9.984;2023-07-16T09:36:24;7.67;;;3.73;;
4307;SDS011;2167;53.448;9.984;2023-07-16T09:38:51;3.50;;;2.17;;
4307;SDS011;2167;53.448;9.984;2023-07-16T09:41:17;2.77;;;2.50;;
4307;SDS011;2167;53.448;9.984;2023-07-16T09:43:44;8.70;;;2.77;;
4307;SDS011;2167;53.448;9.984;2023-07-16T09:46:10;4.07;;;2.17;;
4307;SDS011;2167;53.448;9.984;2023-07-16T09:48:36;3.23;;;2.33;;
4307;SDS011;2167;53.448;9.984;2023-07-16T09:51:02;4.47;;;2.80;;
4307;SDS011;2167;53.448;9.984;2023-07-16T09:53:28;3.60;;;3.07;;
4307;SDS011;2167;53.448;9.984;2023-07-16T09:55:56;5.10;;;3.03;;
4307;SDS011;2167;53.448;9.984;2023-07-16T09:58:23;8.63;;;3.10;;
4307;SDS011;2167;53.448;9.984;2023-07-16T10:00:50;6.90;;;2.23;;
4307;SDS011;2167;53.448;9.984;2023-07-16T10:03:16;4.33;;;2.67;;
4307;SDS011;2167;53.448;9.984;2023-07-16T10:05:42;4.97;;;3.10;;
4307;SDS011;2167;53.448;9.984;2023-07-16T10:08:16;4.27;;;2.77;;
4307;SDS011;2167;53.448;9.984;2023-07-16T10:11:03;3.83;;;2.83;;
4307;SDS011;2167;53.448;9.984;2023-07-16T10:13:28;7.97;;;3.37;;
4307;SDS011;2167;53.448;9.984;2023-07-16T10:15:55;3.97;;;2.93;;
4307;SDS011;2167;53.448;9.984;2023-07-16T10:18:28;7.67;;;3.00;;
4307;SDS011;2167;53.448;9.984;2023-07-16T10:20:59;6.70;;;2.83;;
4307;SDS011;2167;53.448;9.984;2023-07-16T10:23:25;4.47;;;2.10;;
4307;SDS011;2167;53.448;9.984;2023-07-16T10:26:03;9.20;;;2.57;;
4307;SDS011;2167;53.448;9.984;2023-07-16T10:28:31;5.77;;;2.90;;
4307;SDS011;2167;53.448;9.984;2023-07-16T10:30:57;5.43;;;2.80;;
4307;SDS011;2167;53.448;9.984;2023-07-16T10:33:23;3.90;;;2.40;;
4307;SDS011;2167;53.448;9.984;2023-07-16T10:35:49;6.13;;;2.70;;
4307;SDS011;2167;53.448;9.984;2023-07-16T10:38:15;4.90;;;2.77;;
4307;SDS011;2167;53.448;9.984;2023-07-16T10:40:42;7.33;;;2.73;;
4307;SDS011;2167;53.448;9.984;2023-07-16T10:43:08;7.77;;;2.90;;
4307;SDS011;2167;53.448;9.984;2023-07-16T10:45:34;4.13;;;2.90;;
4307;SDS011;2167;53.448;9.984;2023-07-16T10:48:00;8.27;;;2.97;;
4307;SDS011;2167;53.448;9.984;2023-07-16T10:50:26;6.07;;;3.00;;
4307;SDS011;2167;53.448;9.984;2023-07-16T10:52:53;3.40;;;2.97;;
4307;SDS011;2167;53.448;9.984;2023-07-16T10:55:19;4.47;;;3.47;;
4307;SDS011;2167;53.448;9.984;2023-07-16T10:57:48;9.43;;;3.50;;
4307;SDS011;2167;53.448;9.984;2023-07-16T11:00:15;4.70;;;2.47;;
4307;SDS011;2167;53.448;9.984;2023-07-16T11:02:42;6.53;;;3.03;;
4307;SDS011;2167;53.448;9.984;2023-07-16T11:05:12;6.70;;;2.60;;
4307;SDS011;2167;53.448;9.984;2023-07-16T11:07:42;5.20;;;2.60;;
4307;SDS011;2167;53.448;9.984;2023-07-16T11:10:08;3.30;;;2.77;;
4307;SDS011;2167;53.448;9.984;2023-07-16T11:12:34;9.90;;;2.53;;
4307;SDS011;2167;53.448;9.984;2023-07-16T11:15:03;4.20;;;2.80;;
4307;SDS011;2167;53.448;9.984;2023-07-16T11:17:29;3.57;;;2.80;;
4307;SDS011;2167;53.448;9.984;2023-07-16T11:19:55;3.80;;;2.30;;
4307;SDS011;2167;53.448;9.984;2023-07-16T11:22:25;4.60;;;3.40;;
4307;SDS011;2167;53.448;9.984;2023-07-16T11:24:54;5.13;;;2.70;;
4307;SDS011;2167;53.448;9.984;2023-07-16T11:27:21;3.80;;;2.10;;
4307;SDS011;2167;53.448;9.984;2023-07-16T11:29:48;2.47;;;2.00;;
4307;SDS011;2167;53.448;9.984;2023-07-16T11:32:25;7.40;;;3.20;;
4307;SDS011;2167;53.448;9.984;2023-07-16T11:34:52;4.40;;;2.90;;
4307;SDS011;2167;53.448;9.984;2023-07-16T11:37:18;4.27;;;2.63;;
4307;SDS011;2167;53.448;9.984;2023-07-16T11:39:46;6.17;;;3.00;;
4307;SDS011;2167;53.448;9.984;2023-07-16T11:42:13;5.53;;;3.37;;
4307;SDS011;2167;53.448;9.984;2023-07-16T11:44:39;3.27;;;2.47;;
4307;SDS011;2167;53.448;9.984;2023-07-16T11:47:05;4.13;;;2.70;;
4307;SDS011;2167;53.448;9.984;2023-07-16T11:49:31;3.40;;;2.43;;
4307;SDS011;2167;53.448;9.984;2023-07-16T11:51:57;10.23;;;2.93;;
4307;SDS011;2167;53.448;9.984;2023-07-16T11:54:24;6.57;;;3.33;;
4307;SDS011;2167;53.448;9.984;2023-07-16T11:56:53;5.53;;;2.63;;
4307;SDS011;2167;53.448;9.984;2023-07-16T11:59:19;4.03;;;3.13;;
4307;SDS011;2167;53.448;9.984;2023-07-16T12:01:45;5.50;;;3.40;;
4307;SDS011;2167;53.448;9.984;2023-07-16T12:04:12;3.30;;;3.00;;
4307;SDS011;2167;53.448;9.984;2023-07-16T12:06:38;4.20;;;3.33;;
4307;SDS011;2167;53.448;9.984;2023-07-16T12:09:03;7.43;;;2.87;;
4307;SDS011;2167;53.448;9.984;2023-07-16T12:11:29;3.30;;;2.67;;
4307;SDS011;2167;53.448;9.984;2023-07-16T12:13:58;5.07;;;3.30;;
4307;SDS011;2167;53.448;9.984;2023-07-16T12:16:24;3.43;;;2.67;;
4307;SDS011;2167;53.448;9.984;2023-07-16T12:18:50;4.77;;;2.97;;
4307;SDS011;2167;53.448;9.984;2023-07-16T12:21:16;7.27;;;2.67;;
4307;SDS011;2167;53.448;9.984;2023-07-16T12:23:42;2.53;;;2.33;;
4307;SDS011;2167;53.448;9.984;2023-07-16T12:26:07;3.40;;;2.57;;
4307;SDS011;2167;53.448;9.984;2023-07-16T12:28:34;2.70;;;2.00;;
4307;SDS011;2167;53.448;9.984;2023-07-16T12:30:59;6.63;;;2.70;;
4307;SDS011;2167;53.448;9.984;2023-07-16T12:33:26;5.63;;;3.20;;
4307;SDS011;2167;53.448;9.984;2023-07-16T12:35:52;6.57;;;2.70;;
4307;SDS011;2167;53.448;9.984;2023-07-16T12:38:18;2.80;;;2.13;;
4307;SDS011;2167;53.448;9.984;2023-07-16T12:40:45;7.20;;;2.60;;
4307;SDS011;2167;53.448;9.984;2023-07-16T12:43:11;3.47;;;2.50;;
4307;SDS011;2167;53.448;9.984;2023-07-16T12:45:37;3.77;;;2.17;;
4307;SDS011;2167;53.448;9.984;2023-07-16T12:48:03;2.40;;;2.20;;
4307;SDS011;2167;53.448;9.984;2023-07-16T12:50:29;3.90;;;2.70;;
4307;SDS011;2167;53.448;9.984;2023-07-16T12:52:55;2.13;;;1.60;;
4307;SDS011;2167;53.448;9.984;2023-07-16T12:55:23;4.30;;;2.33;;
4307;SDS011;2167;53.448;9.984;2023-07-16T12:57:50;4.10;;;1.83;;
4307;SDS011;2167;53.448;9.984;2023-07-16T13:00:16;4.97;;;1.93;;
4307;SDS011;2167;53.448;9.984;2023-07-16T13:02:42;5.07;;;2.10;;
4307;SDS011;2167;53.448;9.984;2023-07-16T13:05:08;3.70;;;2.40;;
4307;SDS011;2167;53.448;9.984;2023-07-16T13:07:34;2.23;;;1.80;;
4307;SDS011;2167;53.448;9.984;2023-07-16T13:10:00;4.63;;;2.40;;
4307;SDS011;2167;53.448;9.984;2023-07-16T13:12:25;3.40;;;2.00;;
4307;SDS011;2167;53.448;9.984;2023-07-16T13:14:51;6.60;;;2.20;;
4307;SDS011;2167;53.448;9.984;2023-07-16T13:17:17;4.77;;;2.10;;
4307;SDS011;2167;53.448;9.984;2023-07-16T13:19:44;4.53;;;2.10;;
4307;SDS011;2167;53.448;9.984;2023-07-16T13:22:10;4.57;;;2.17;;
4307;SDS011;2167;53.448;9.984;2023-07-16T13:24:39;2.20;;;2.00;;
4307;SDS011;2167;53.448;9.984;2023-07-16T13:27:06;6.60;;;2.30;;
4307;SDS011;2167;53.448;9.984;2023-07-16T13:29:32;4.20;;;2.83;;
4307;SDS011;2167;53.448;9.984;2023-07-16T13:31:58;3.73;;;2.07;;
4307;SDS011;2167;53.448;9.984;2023-07-16T13:34:23;3.60;;;2.07;;
4307;SDS011;2167;53.448;9.984;2023-07-16T13:36:49;8.00;;;2.63;;
4307;SDS011;2167;53.448;9.984;2023-07-16T13:39:15;2.40;;;1.70;;
4307;SDS011;2167;53.448;9.984;2023-07-16T13:41:42;3.40;;;2.30;;
4307;SDS011;2167;53.448;9.984;2023-07-16T13:44:07;6.10;;;2.40;;
4307;SDS011;2167;53.448;9.984;2023-07-16T13:46:33;7.73;;;2.03;;
4307;SDS011;2167;53.448;9.984;2023-07-16T13:49:00;2.20;;;1.50;;
4307;SDS011;2167;53.448;9.984;2023-07-16T13:51:26;3.10;;;1.40;;
4307;SDS011;2167;53.448;9.984;2023-07-16T13:53:52;6.17;;;2.30;;
4307;SDS011;2167;53.448;9.984;2023-07-16T13:56:18;2.93;;;2.07;;
4307;SDS011;2167;53.448;9.984;2023-07-16T13:58:44;1.67;;;1.57;;
4307;SDS011;2167;53.448;9.984;2023-07-16T14:01:09;2.83;;;1.93;;
4307;SDS011;2167;53.448;9.984;2023-07-16T14:03:35;4.97;;;2.13;;
4307;SDS011;2167;53.448;9.984;2023-07-16T14:06:01;5.80;;;1.80;;
4307;SDS011;2167;53.448;9.984;2023-07-16T14:08:28;3.23;;;2.10;;
4307;SDS011;2167;53.448;9.984;2023-07-16T14:10:54;2.60;;;1.80;;
4307;SDS011;2167;53.448;9.984;2023-07-16T14:13:20;4.93;;;1.87;;
4307;SDS011;2167;53.448;9.984;2023-07-16T14:15:52;5.10;;;2.63;;
4307;SDS011;2167;53.448;9.984;2023-07-16T14:18:18;3.93;;;2.30;;
4307;SDS011;2167;53.448;9.984;2023-07-16T14:20:43;4.23;;;2.00;;
4307;SDS011;2167;53.448;9.984;2023-07-16T14:23:09;2.30;;;2.00;;
4307;SDS011;2167;53.448;9.984;2023-07-16T14:25:39;3.27;;;2.27;;
4307;SDS011;2167;53.448;9.984;2023-07-16T14:28:05;5.00;;;1.80;;
4307;SDS011;2167;53.448;9.984;2023-07-16T14:30:31;3.77;;;2.73;;
4307;SDS011;2167;53.448;9.984;2023-07-16T14:32:57;3.43;;;2.23;;
4307;SDS011;2167;53.448;9.984;2023-07-16T14:35:24;3.60;;;2.23;;
4307;SDS011;2167;53.448;9.984;2023-07-16T14:37:50;5.23;;;2.40;;
4307;SDS011;2167;53.448;9.984;2023-07-16T14:40:16;2.37;;;1.73;;
4307;SDS011;2167;53.448;9.984;2023-07-16T14:42:43;2.97;;;2.07;;
4307;SDS011;2167;53.448;9.984;2023-07-16T14:45:09;4.20;;;1.90;;
4307;SDS011;2167;53.448;9.984;2023-07-16T14:47:35;4.87;;;2.17;;
4307;SDS011;2167;53.448;9.984;2023-07-16T14:50:02;4.23;;;2.43;;
4307;SDS011;2167;53.448;9.984;2023-07-16T14:52:28;5.50;;;2.40;;
4307;SDS011;2167;53.448;9.984;2023-07-16T14:54:54;2.67;;;2.07;;
4307;SDS011;2167;53.448;9.984;2023-07-16T14:57:19;5.50;;;2.43;;
4307;SDS011;2167;53.448;9.984;2023-07-16T14:59:46;3.33;;;2.17;;
4307;SDS011;2167;53.448;9.984;2023-07-16T15:02:12;3.17;;;2.30;;
4307;SDS011;2167;53.448;9.984;2023-07-16T15:04:39;4.63;;;2.97;;
4307;SDS011;2167;53.448;9.984;2023-07-16T15:07:13;3.73;;;2.30;;
4307;SDS011;2167;53.448;9.984;2023-07-16T15:09:39;6.37;;;3.03;;
4307;SDS011;2167;53.448;9.984;2023-07-16T15:12:05;6.80;;;2.40;;
4307;SDS011;2167;53.448;9.984;2023-07-16T15:14:32;3.57;;;1.90;;
4307;SDS011;2167;53.448;9.984;2023-07-16T15:16:58;3.40;;;1.83;;
4307;SDS011;2167;53.448;9.984;2023-07-16T15:19:24;3.57;;;2.20;;
4307;SDS011;2167;53.448;9.984;2023-07-16T15:21:50;8.33;;;3.17;;